sensor_id;sensor_type;location;lat;lon;timestamp;pressure;altitude;pressure_sealevel;temperature;humidity
54556;BME280;57291;37.520;15.106;2023-09-19T00:00:57;101305.19;;;26.16;62.81
54556;BME280;57291;37.520;15.106;2023-09-19T00:03:24;101299.56;;;26.12;66.44
54556;BME280;57291;37.520;15.106;2023-09-19T00:05:52;101291.56;;;26.04;67.83
54556;BME280;57291;37.520;15.106;2023-09-19T00:08:20;101292.28;;;25.93;67.14
54556;BME280;57291;37.520;15.106;2023-09-19T00:10:51;101290.66;;;25.92;65.81
54556;BME280;57291;37.520;15.106;2023-09-19T00:13:18;101279.47;;;25.85;65.78
54556;BME280;57291;37.520;15.106;2023-09-19T00:15:47;101261.16;;;25.81;66.91
54556;BME280;57291;37.520;15.106;2023-09-19T00:18:20;101261.13;;;25.77;68.24
54556;BME280;57291;37.520;15.106;2023-09-19T00:20:58;101260.66;;;25.71;69.72
54556;BME280;57291;37.520;15.106;2023-09-19T00:23:26;101245.94;;;25.67;70.01
54556;BME280;57291;37.520;15.106;2023-09-19T00:25:53;101243.41;;;25.52;71.14
54556;BME280;57291;37.520;15.106;2023-09-19T00:28:24;101229.03;;;25.42;72.49
54556;BME280;57291;37.520;15.106;2023-09-19T00:30:52;101227.38;;;25.34;73.00
54556;BME280;57291;37.520;15.106;2023-09-19T00:33:21;101224.97;;;25.33;72.01
54556;BME280;57291;37.520;15.106;2023-09-19T00:35:50;101224.16;;;25.32;72.39
54556;BME280;57291;37.520;15.106;2023-09-19T00:38:18;101228.13;;;25.31;73.03
54556;BME280;57291;37.520;15.106;2023-09-19T00:40:51;101224.94;;;25.29;73.66
54556;BME280;57291;37.520;15.106;2023-09-19T00:43:24;101225.72;;;25.30;73.75
54556;BME280;57291;37.520;15.106;2023-09-19T00:45:54;101219.38;;;25.29;74.26
54556;BME280;57291;37.520;15.106;2023-09-19T00:48:22;101213.38;;;25.27;74.21
54556;BME280;57291;37.520;15.106;2023-09-19T00:50:50;101228.09;;;25.27;73.24
54556;BME280;57291;37.520;15.106;2023-09-19T00:53:21;101226.16;;;25.32;72.15
54556;BME280;57291;37.520;15.106;2023-09-19T00:55:51;101213.88;;;25.36;71.60
54556;BME280;57291;37.520;15.106;2023-09-19T00:58:20;101213.06;;;25.36;71.89
54556;BME280;57291;37.520;15.106;2023-09-19T01:00:52;101222.22;;;25.36;71.21
54556;BME280;57291;37.520;15.106;2023-09-19T01:03:20;101217.44;;;25.37;71.92
54556;BME280;57291;37.520;15.106;2023-09-19T01:05:49;101215.47;;;25.37;71.85
54556;BME280;57291;37.520;15.106;2023-09-19T01:08:17;101215.84;;;25.36;68.42
54556;BME280;57291;37.520;15.106;2023-09-19T01:13:48;101203.59;;;25.40;70.12
54556;BME280;57291;37.520;15.106;2023-09-19T01:16:44;101198.03;;;25.40;68.50
54556;BME280;57291;37.520;15.106;2023-09-19T01:31:06;101181.66;;;25.35;68.21
54556;BME280;57291;37.520;15.106;2023-09-19T01:33:59;101170.53;;;25.35;69.18
54556;BME280;57291;37.520;15.106;2023-09-19T01:36:29;101167.34;;;25.33;68.94
54556;BME280;57291;37.520;15.106;2023-09-19T01:38:58;101181.25;;;25.33;68.98
54556;BME280;57291;37.520;15.106;2023-09-19T01:42:01;101184.03;;;25.33;68.92
54556;BME280;57291;37.520;15.106;2023-09-19T01:47:32;101155.44;;;25.36;69.14
54556;BME280;57291;37.520;15.106;2023-09-19T01:50:22;101158.59;;;25.31;69.52
54556;BME280;57291;37.520;15.106;2023-09-19T01:52:59;101175.28;;;25.31;69.20
54556;BME280;57291;37.520;15.106;2023-09-19T01:55:36;101167.72;;;25.32;69.11
54556;BME280;57291;37.520;15.106;2023-09-19T01:58:08;101164.16;;;25.31;69.52
54556;BME280;57291;37.520;15.106;2023-09-19T02:00:40;101160.94;;;25.29;69.44
54556;BME280;57291;37.520;15.106;2023-09-19T02:03:10;101159.72;;;25.26;69.71
54556;BME280;57291;37.520;15.106;2023-09-19T02:05:38;101151.81;;;25.29;69.65
54556;BME280;57291;37.520;15.106;2023-09-19T02:08:06;101155.81;;;25.31;67.65
54556;BME280;57291;37.520;15.106;2023-09-19T02:10:33;101151.06;;;25.35;66.04
54556;BME280;57291;37.520;15.106;2023-09-19T02:13:01;101153.06;;;25.38;64.47
54556;BME280;57291;37.520;15.106;2023-09-19T02:15:31;101152.75;;;25.47;62.65
54556;BME280;57291;37.520;15.106;2023-09-19T02:18:01;101155.16;;;25.52;61.82
54556;BME280;57291;37.520;15.106;2023-09-19T02:20:30;101161.50;;;25.53;62.60
54556;BME280;57291;37.520;15.106;2023-09-19T02:22:59;101153.16;;;25.49;63.28
54556;BME280;57291;37.520;15.106;2023-09-19T02:25:27;101159.47;;;25.42;62.58
54556;BME280;57291;37.520;15.106;2023-09-19T02:27:54;101156.34;;;25.47;60.21
54556;BME280;57291;37.520;15.106;2023-09-19T02:30:25;101159.16;;;25.55;58.44
54556;BME280;57291;37.520;15.106;2023-09-19T02:32:55;101148.03;;;25.55;59.82
54556;BME280;57291;37.520;15.106;2023-09-19T02:35:22;101154.78;;;25.54;58.32
54556;BME280;57291;37.520;15.106;2023-09-19T02:37:50;101161.63;;;25.63;56.60
54556;BME280;57291;37.520;15.106;2023-09-19T02:40:17;101158.50;;;25.79;54.07
54556;BME280;57291;37.520;15.106;2023-09-19T02:42:49;101157.78;;;25.86;53.04
54556;BME280;57291;37.520;15.106;2023-09-19T02:45:21;101154.63;;;25.91;52.46
54556;BME280;57291;37.520;15.106;2023-09-19T02:47:50;101144.25;;;25.84;53.20
54556;BME280;57291;37.520;15.106;2023-09-19T02:50:18;101154.13;;;25.78;53.11
54556;BME280;57291;37.520;15.106;2023-09-19T02:52:48;101148.97;;;25.77;52.89
54556;BME280;57291;37.520;15.106;2023-09-19T02:55:17;101148.91;;;25.73;53.25
54556;BME280;57291;37.520;15.106;2023-09-19T02:57:52;101140.16;;;25.67;54.33
54556;BME280;57291;37.520;15.106;2023-09-19T03:00:22;101132.53;;;25.57;55.31
54556;BME280;57291;37.520;15.106;2023-09-19T03:02:50;101126.09;;;25.46;55.11
54556;BME280;57291;37.520;15.106;2023-09-19T03:05:19;101135.19;;;25.39;55.32
54556;BME280;57291;37.520;15.106;2023-09-19T03:07:48;101126.44;;;25.34;55.36
54556;BME280;57291;37.520;15.106;2023-09-19T03:10:20;101128.75;;;25.28;54.73
54556;BME280;57291;37.520;15.106;2023-09-19T03:12:47;101122.81;;;25.33;53.07
54556;BME280;57291;37.520;15.106;2023-09-19T03:15:15;101120.06;;;25.37;52.79
54556;BME280;57291;37.520;15.106;2023-09-19T03:17:45;101135.19;;;25.39;53.66
54556;BME280;57291;37.520;15.106;2023-09-19T03:20:17;101120.13;;;25.40;52.79
54556;BME280;57291;37.520;15.106;2023-09-19T03:22:46;101128.84;;;25.42;52.84
54556;BME280;57291;37.520;15.106;2023-09-19T03:25:16;101127.28;;;25.41;52.66
54556;BME280;57291;37.520;15.106;2023-09-19T03:27:49;101128.41;;;25.37;53.24
54556;BME280;57291;37.520;15.106;2023-09-19T03:30:17;101126.44;;;25.34;53.45
54556;BME280;57291;37.520;15.106;2023-09-19T03:32:46;101116.84;;;25.27;54.10
54556;BME280;57291;37.520;15.106;2023-09-19T03:35:14;101118.78;;;25.23;53.67
54556;BME280;57291;37.520;15.106;2023-09-19T03:37:42;101114.81;;;25.21;54.10
54556;BME280;57291;37.520;15.106;2023-09-19T03:40:10;101117.56;;;25.17;54.51
54556;BME280;57291;37.520;15.106;2023-09-19T03:42:42;101117.13;;;25.15;54.55
54556;BME280;57291;37.520;15.106;2023-09-19T03:45:12;101119.50;;;25.13;54.77
54556;BME280;57291;37.520;15.106;2023-09-19T03:47:45;101119.44;;;25.10;54.59
54556;BME280;57291;37.520;15.106;2023-09-19T03:50:18;101125.00;;;25.10;54.99
54556;BME280;57291;37.520;15.106;2023-09-19T03:52:46;101125.41;;;25.08;55.41
54556;BME280;57291;37.520;15.106;2023-09-19T03:55:13;101135.31;;;25.06;55.60
54556;BME280;57291;37.520;15.106;2023-09-19T03:57:41;101131.31;;;25.03;55.20
54556;BME280;57291;37.520;15.106;2023-09-19T04:00:09;101139.28;;;25.04;54.63
54556;BME280;57291;37.520;15.106;2023-09-19T04:02:39;101143.38;;;25.14;54.41
54556;BME280;57291;37.520;15.106;2023-09-19T04:05:08;101149.75;;;25.18;57.66
54556;BME280;57291;37.520;15.106;2023-09-19T04:07:37;101147.34;;;25.17;59.99
54556;BME280;57291;37.520;15.106;2023-09-19T04:10:05;101148.94;;;25.18;59.53
54556;BME280;57291;37.520;15.106;2023-09-19T04:12:33;101158.13;;;25.22;60.95
54556;BME280;57291;37.520;15.106;2023-09-19T04:15:00;101166.00;;;25.16;61.83
54556;BME280;57291;37.520;15.106;2023-09-19T04:17:27;101159.13;;;25.07;62.88
54556;BME280;57291;37.520;15.106;2023-09-19T04:19:55;101157.16;;;25.07;66.31
54556;BME280;57291;37.520;15.106;2023-09-19T04:22:22;101158.34;;;25.06;70.53
54556;BME280;57291;37.520;15.106;2023-09-19T04:24:50;101173.19;;;25.17;74.29
54556;BME280;57291;37.520;15.106;2023-09-19T04:27:18;101166.06;;;25.23;76.10
54556;BME280;57291;37.520;15.106;2023-09-19T04:29:45;101173.97;;;25.18;76.60
54556;BME280;57291;37.520;15.106;2023-09-19T04:32:12;101179.53;;;25.18;76.92
54556;BME280;57291;37.520;15.106;2023-09-19T04:34:40;101187.88;;;25.14;77.13
54556;BME280;57291;37.520;15.106;2023-09-19T04:37:07;101189.81;;;25.14;76.44
54556;BME280;57291;37.520;15.106;2023-09-19T04:39:34;101195.78;;;25.12;76.08
54556;BME280;57291;37.520;15.106;2023-09-19T04:42:02;101197.75;;;25.12;75.37
54556;BME280;57291;37.520;15.106;2023-09-19T04:44:30;101192.19;;;25.12;74.29
54556;BME280;57291;37.520;15.106;2023-09-19T04:46:57;101194.53;;;25.10;74.41
54556;BME280;57291;37.520;15.106;2023-09-19T04:49:25;101189.75;;;25.10;73.04
54556;BME280;57291;37.520;15.106;2023-09-19T04:51:52;101186.25;;;25.13;72.04
54556;BME280;57291;37.520;15.106;2023-09-19T04:54:20;101185.88;;;25.15;71.48
54556;BME280;57291;37.520;15.106;2023-09-19T04:56:50;101187.03;;;25.14;71.64
54556;BME280;57291;37.520;15.106;2023-09-19T04:59:17;101183.47;;;25.13;72.19
54556;BME280;57291;37.520;15.106;2023-09-19T05:01:45;101175.16;;;25.17;71.66
54556;BME280;57291;37.520;15.106;2023-09-19T05:04:13;101170.44;;;25.21;71.24
54556;BME280;57291;37.520;15.106;2023-09-19T05:06:41;101176.44;;;25.30;70.73
54556;BME280;57291;37.520;15.106;2023-09-19T05:09:12;101186.03;;;25.36;70.29
54556;BME280;57291;37.520;15.106;2023-09-19T05:11:40;101187.72;;;25.44;69.67
54556;BME280;57291;37.520;15.106;2023-09-19T05:14:07;101173.84;;;25.52;69.76
54556;BME280;57291;37.520;15.106;2023-09-19T05:16:34;101179.44;;;25.59;69.48
54556;BME280;57291;37.520;15.106;2023-09-19T05:19:02;101185.47;;;25.64;69.74
54556;BME280;57291;37.520;15.106;2023-09-19T05:21:30;101187.50;;;25.71;68.23
54556;BME280;57291;37.520;15.106;2023-09-19T05:23:58;101187.13;;;25.76;68.58
54556;BME280;57291;37.520;15.106;2023-09-19T05:26:25;101185.59;;;25.82;67.23
54556;BME280;57291;37.520;15.106;2023-09-19T05:28:52;101190.81;;;25.91;66.99
54556;BME280;57291;37.520;15.106;2023-09-19T05:31:19;101184.47;;;25.90;66.19
54556;BME280;57291;37.520;15.106;2023-09-19T05:33:47;101186.06;;;25.91;66.55
54556;BME280;57291;37.520;15.106;2023-09-19T05:36:14;101192.03;;;25.93;66.68
54556;BME280;57291;37.520;15.106;2023-09-19T05:38:43;101209.56;;;25.98;65.85
54556;BME280;57291;37.520;15.106;2023-09-19T05:41:11;101217.94;;;26.05;64.91
54556;BME280;57291;37.520;15.106;2023-09-19T05:43:41;101223.19;;;26.17;64.37
54556;BME280;57291;37.520;15.106;2023-09-19T05:46:09;101232.81;;;26.30;63.42
54556;BME280;57291;37.520;15.106;2023-09-19T05:48:36;101235.72;;;26.52;61.89
54556;BME280;57291;37.520;15.106;2023-09-19T05:51:04;101218.72;;;26.82;61.29
54556;BME280;57291;37.520;15.106;2023-09-19T05:53:31;101208.78;;;27.06;60.41
54556;BME280;57291;37.520;15.106;2023-09-19T05:55:59;101217.59;;;27.29;59.62
54556;BME280;57291;37.520;15.106;2023-09-19T05:58:27;101224.38;;;27.64;59.87
54556;BME280;57291;37.520;15.106;2023-09-19T06:00:55;101225.16;;;27.79;59.35
54556;BME280;57291;37.520;15.106;2023-09-19T06:03:22;101226.69;;;28.12;59.41
54556;BME280;57291;37.520;15.106;2023-09-19T06:05:50;101217.81;;;28.35;57.06
54556;BME280;57291;37.520;15.106;2023-09-19T06:08:20;101223.38;;;28.53;55.82
54556;BME280;57291;37.520;15.106;2023-09-19T06:10:48;101214.91;;;28.67;54.91
54556;BME280;57291;37.520;15.106;2023-09-19T06:13:16;101224.03;;;28.75;54.82
54556;BME280;57291;37.520;15.106;2023-09-19T06:15:45;101228.41;;;28.83;54.67
54556;BME280;57291;37.520;15.106;2023-09-19T06:18:13;101232.81;;;28.81;53.35
54556;BME280;57291;37.520;15.106;2023-09-19T06:20:44;101230.84;;;28.74;53.28
54556;BME280;57291;37.520;15.106;2023-09-19T06:23:12;101227.72;;;28.61;53.58
54556;BME280;57291;37.520;15.106;2023-09-19T06:25:40;101218.19;;;28.51;53.93
54556;BME280;57291;37.520;15.106;2023-09-19T06:28:07;101223.00;;;28.47;54.20
54556;BME280;57291;37.520;15.106;2023-09-19T06:30:38;101220.59;;;28.46;53.84
54556;BME280;57291;37.520;15.106;2023-09-19T06:33:09;101219.38;;;28.54;53.50
54556;BME280;57291;37.520;15.106;2023-09-19T06:35:38;101204.28;;;29.07;52.52
54556;BME280;57291;37.520;15.106;2023-09-19T06:38:06;101213.28;;;29.81;51.06
54556;BME280;57291;37.520;15.106;2023-09-19T06:40:34;101214.75;;;30.27;48.78
54556;BME280;57291;37.520;15.106;2023-09-19T06:43:02;101214.25;;;30.97;48.27
54556;BME280;57291;37.520;15.106;2023-09-19T06:45:32;101210.03;;;31.60;46.13
54556;BME280;57291;37.520;15.106;2023-09-19T06:47:59;101225.41;;;31.98;44.60
54556;BME280;57291;37.520;15.106;2023-09-19T06:50:27;101222.50;;;32.42;44.45
54556;BME280;57291;37.520;15.106;2023-09-19T06:52:55;101212.13;;;32.59;40.98
54556;BME280;57291;37.520;15.106;2023-09-19T06:55:25;101203.34;;;32.73;39.14
54556;BME280;57291;37.520;15.106;2023-09-19T06:57:55;101198.19;;;32.88;39.29
54556;BME280;57291;37.520;15.106;2023-09-19T07:00:23;101199.22;;;33.14;40.80
54556;BME280;57291;37.520;15.106;2023-09-19T07:03:02;101202.25;;;33.20;40.33
54556;BME280;57291;37.520;15.106;2023-09-19T07:05:32;101208.84;;;33.46;42.20
54556;BME280;57291;37.520;15.106;2023-09-19T07:08:00;101220.13;;;33.29;43.81
54556;BME280;57291;37.520;15.106;2023-09-19T07:10:28;101219.78;;;33.27;40.86
54556;BME280;57291;37.520;15.106;2023-09-19T07:13:06;101218.56;;;33.28;41.59
54556;BME280;57291;37.520;15.106;2023-09-19T07:15:38;101223.34;;;32.79;39.05
54556;BME280;57291;37.520;15.106;2023-09-19T07:18:08;101220.84;;;33.17;39.67
54556;BME280;57291;37.520;15.106;2023-09-19T07:20:38;101220.31;;;33.22;41.12
54556;BME280;57291;37.520;15.106;2023-09-19T07:23:05;101214.69;;;33.06;40.84
54556;BME280;57291;37.520;15.106;2023-09-19T07:25:33;101223.06;;;32.89;40.55
54556;BME280;57291;37.520;15.106;2023-09-19T07:28:02;101219.28;;;32.80;38.77
54556;BME280;57291;37.520;15.106;2023-09-19T07:30:30;101219.97;;;32.84;37.38
54556;BME280;57291;37.520;15.106;2023-09-19T07:32:57;101220.72;;;32.88;37.05
54556;BME280;57291;37.520;15.106;2023-09-19T07:35:24;101227.88;;;33.09;37.76
54556;BME280;57291;37.520;15.106;2023-09-19T07:37:52;101232.53;;;33.15;37.79
54556;BME280;57291;37.520;15.106;2023-09-19T07:40:20;101231.47;;;33.09;35.90
54556;BME280;57291;37.520;15.106;2023-09-19T07:42:48;101237.47;;;33.28;34.76
54556;BME280;57291;37.520;15.106;2023-09-19T07:45:16;101242.41;;;33.56;35.02
54556;BME280;57291;37.520;15.106;2023-09-19T07:47:48;101232.81;;;33.70;34.47
54556;BME280;57291;37.520;15.106;2023-09-19T07:50:17;101234.91;;;33.66;34.57
54556;BME280;57291;37.520;15.106;2023-09-19T07:52:49;101238.78;;;33.39;34.10
54556;BME280;57291;37.520;15.106;2023-09-19T07:55:20;101241.75;;;33.00;35.10
54556;BME280;57291;37.520;15.106;2023-09-19T07:57:54;101248.41;;;32.89;34.75
54556;BME280;57291;37.520;15.106;2023-09-19T08:00:21;101245.72;;;32.66;35.47
54556;BME280;57291;37.520;15.106;2023-09-19T08:02:48;101259.03;;;32.45;36.21
54556;BME280;57291;37.520;15.106;2023-09-19T08:05:24;101259.06;;;32.22;37.89
54556;BME280;57291;37.520;15.106;2023-09-19T08:07:52;101254.56;;;32.05;35.78
54556;BME280;57291;37.520;15.106;2023-09-19T08:10:21;101256.50;;;31.88;37.51
54556;BME280;57291;37.520;15.106;2023-09-19T08:12:48;101268.34;;;31.75;39.87
54556;BME280;57291;37.520;15.106;2023-09-19T08:15:17;101275.31;;;31.67;40.86
54556;BME280;57291;37.520;15.106;2023-09-19T08:17:47;101274.22;;;31.61;40.78
54556;BME280;57291;37.520;15.106;2023-09-19T08:20:15;101284.59;;;31.41;39.29
54556;BME280;57291;37.520;15.106;2023-09-19T08:22:50;101275.53;;;31.26;41.28
54556;BME280;57291;37.520;15.106;2023-09-19T08:25:24;101283.69;;;30.93;41.41
54556;BME280;57291;37.520;15.106;2023-09-19T08:27:55;101278.69;;;30.74;42.47
54556;BME280;57291;37.520;15.106;2023-09-19T08:30:25;101273.44;;;30.76;41.61
54556;BME280;57291;37.520;15.106;2023-09-19T08:32:58;101280.41;;;30.64;40.84
54556;BME280;57291;37.520;15.106;2023-09-19T08:35:30;101278.97;;;30.83;42.72
54556;BME280;57291;37.520;15.106;2023-09-19T08:37:57;101277.19;;;30.96;42.84
54556;BME280;57291;37.520;15.106;2023-09-19T08:40:24;101271.56;;;30.96;40.43
54556;BME280;57291;37.520;15.106;2023-09-19T08:42:55;101269.84;;;31.06;40.74
54556;BME280;57291;37.520;15.106;2023-09-19T08:45:25;101265.78;;;31.11;40.35
54556;BME280;57291;37.520;15.106;2023-09-19T08:50:28;101262.38;;;31.23;41.58
54556;BME280;57291;37.520;15.106;2023-09-19T08:53:00;101261.72;;;31.12;43.27
54556;BME280;57291;37.520;15.106;2023-09-19T08:55:28;101260.41;;;30.93;43.44
54556;BME280;57291;37.520;15.106;2023-09-19T08:58:16;101256.31;;;30.67;42.27
54556;BME280;57291;37.520;15.106;2023-09-19T09:00:48;101254.41;;;30.60;44.98
54556;BME280;57291;37.520;15.106;2023-09-19T09:03:17;101254.84;;;30.58;43.32
54556;BME280;57291;37.520;15.106;2023-09-19T09:05:46;101261.19;;;30.63;42.07
54556;BME280;57291;37.520;15.106;2023-09-19T09:08:14;101263.06;;;30.73;41.51
54556;BME280;57291;37.520;15.106;2023-09-19T09:10:44;101264.59;;;30.81;38.45
54556;BME280;57291;37.520;15.106;2023-09-19T09:13:12;101262.97;;;30.83;38.25
54556;BME280;57291;37.520;15.106;2023-09-19T09:15:42;101251.00;;;31.06;35.96
54556;BME280;57291;37.520;15.106;2023-09-19T09:18:11;101260.84;;;31.18;39.31
54556;BME280;57291;37.520;15.106;2023-09-19T09:20:39;101254.75;;;31.23;37.34
54556;BME280;57291;37.520;15.106;2023-09-19T09:23:06;101253.69;;;31.14;36.70
54556;BME280;57291;37.520;15.106;2023-09-19T09:25:52;101255.06;;;31.02;38.77
54556;BME280;57291;37.520;15.106;2023-09-19T09:28:31;101258.53;;;30.82;43.43
54556;BME280;57291;37.520;15.106;2023-09-19T09:31:01;101267.81;;;30.76;45.80
54556;BME280;57291;37.520;15.106;2023-09-19T09:33:35;101261.47;;;30.72;47.41
54556;BME280;57291;37.520;15.106;2023-09-19T09:36:03;101259.09;;;30.70;47.93
54556;BME280;57291;37.520;15.106;2023-09-19T09:38:47;101255.97;;;30.65;46.88
54556;BME280;57291;37.520;15.106;2023-09-19T09:41:36;101259.41;;;30.76;44.89
54556;BME280;57291;37.520;15.106;2023-09-19T09:44:16;101260.78;;;30.95;49.22
54556;BME280;57291;37.520;15.106;2023-09-19T09:46:48;101252.25;;;31.02;46.20
54556;BME280;57291;37.520;15.106;2023-09-19T09:49:23;101246.00;;;31.18;41.12
54556;BME280;57291;37.520;15.106;2023-09-19T09:52:02;101261.59;;;31.49;41.07
54556;BME280;57291;37.520;15.106;2023-09-19T09:55:04;101249.13;;;31.50;41.95
54556;BME280;57291;37.520;15.106;2023-09-19T09:57:37;101246.31;;;31.50;46.68
54556;BME280;57291;37.520;15.106;2023-09-19T10:00:09;101246.28;;;31.27;48.85
54556;BME280;57291;37.520;15.106;2023-09-19T10:02:40;101244.78;;;30.92;50.10
54556;BME280;57291;37.520;15.106;2023-09-19T10:05:20;101230.53;;;30.79;47.10
54556;BME280;57291;37.520;15.106;2023-09-19T10:08:10;101239.09;;;30.68;54.53
54556;BME280;57291;37.520;15.106;2023-09-19T10:10:40;101232.56;;;30.78;55.41
54556;BME280;57291;37.520;15.106;2023-09-19T10:13:13;101231.56;;;30.61;56.74
54556;BME280;57291;37.520;15.106;2023-09-19T10:15:48;101227.84;;;30.41;58.73
54556;BME280;57291;37.520;15.106;2023-09-19T10:18:23;101225.13;;;30.34;55.05
54556;BME280;57291;37.520;15.106;2023-09-19T10:20:51;101225.13;;;30.34;54.59
54556;BME280;57291;37.520;15.106;2023-09-19T10:23:20;101218.47;;;30.51;49.40
54556;BME280;57291;37.520;15.106;2023-09-19T10:25:52;101214.88;;;30.51;43.57
54556;BME280;57291;37.520;15.106;2023-09-19T10:28:20;101227.69;;;30.18;54.62
54556;BME280;57291;37.520;15.106;2023-09-19T10:30:52;101217.66;;;29.82;61.56
54556;BME280;57291;37.520;15.106;2023-09-19T10:33:24;101219.50;;;29.51;65.69
54556;BME280;57291;37.520;15.106;2023-09-19T10:35:59;101221.06;;;29.59;67.73
54556;BME280;57291;37.520;15.106;2023-09-19T10:38:27;101210.44;;;29.40;68.88
54556;BME280;57291;37.520;15.106;2023-09-19T10:40:57;101206.16;;;29.25;72.97
54556;BME280;57291;37.520;15.106;2023-09-19T10:43:33;101206.16;;;29.25;72.17
54556;BME280;57291;37.520;15.106;2023-09-19T10:46:07;101202.22;;;29.15;71.55
54556;BME280;57291;37.520;15.106;2023-09-19T10:48:39;101209.31;;;29.30;71.37
54556;BME280;57291;37.520;15.106;2023-09-19T10:51:13;101213.91;;;29.51;72.38
54556;BME280;57291;37.520;15.106;2023-09-19T10:53:47;101217.53;;;29.48;72.38
54556;BME280;57291;37.520;15.106;2023-09-19T10:56:21;101215.03;;;29.64;70.53
54556;BME280;57291;37.520;15.106;2023-09-19T10:58:50;101218.88;;;29.81;68.85
54556;BME280;57291;37.520;15.106;2023-09-19T11:01:18;101216.53;;;29.76;68.35
54556;BME280;57291;37.520;15.106;2023-09-19T11:03:47;101212.25;;;29.61;71.24
54556;BME280;57291;37.520;15.106;2023-09-19T11:06:19;101207.13;;;29.52;74.29
54556;BME280;57291;37.520;15.106;2023-09-19T11:14:15;101203.97;;;29.47;72.31
54556;BME280;57291;37.520;15.106;2023-09-19T11:25:45;101207.03;;;30.01;63.00
54556;BME280;57291;37.520;15.106;2023-09-19T11:30:46;101197.16;;;30.27;59.56
54556;BME280;57291;37.520;15.106;2023-09-19T11:33:24;101192.25;;;30.34;63.82
54556;BME280;57291;37.520;15.106;2023-09-19T11:36:09;101186.31;;;30.29;62.50
54556;BME280;57291;37.520;15.106;2023-09-19T11:46:53;101183.28;;;30.12;64.30
54556;BME280;57291;37.520;15.106;2023-09-19T11:49:29;101179.88;;;29.94;65.89
54556;BME280;57291;37.520;15.106;2023-09-19T11:52:00;101170.59;;;30.04;64.25
54556;BME280;57291;37.520;15.106;2023-09-19T11:54:29;101169.41;;;30.02;66.92
54556;BME280;57291;37.520;15.106;2023-09-19T11:57:00;101171.75;;;30.07;67.34
54556;BME280;57291;37.520;15.106;2023-09-19T11:59:29;101176.25;;;29.97;65.55
54556;BME280;57291;37.520;15.106;2023-09-19T12:01:58;101173.50;;;29.94;66.01
54556;BME280;57291;37.520;15.106;2023-09-19T12:07:00;101161.72;;;30.09;65.73
54556;BME280;57291;37.520;15.106;2023-09-19T12:09:27;101163.16;;;30.25;65.64
54556;BME280;57291;37.520;15.106;2023-09-19T12:11:55;101161.66;;;30.47;63.06
54556;BME280;57291;37.520;15.106;2023-09-19T12:14:23;101156.16;;;30.67;59.98
54556;BME280;57291;37.520;15.106;2023-09-19T12:16:56;101153.81;;;30.89;56.16
54556;BME280;57291;37.520;15.106;2023-09-19T12:19:25;101139.78;;;31.16;54.73
54556;BME280;57291;37.520;15.106;2023-09-19T12:22:00;101144.09;;;31.44;55.62
54556;BME280;57291;37.520;15.106;2023-09-19T12:24:32;101142.00;;;31.48;52.31
54556;BME280;57291;37.520;15.106;2023-09-19T12:27:04;101136.78;;;31.70;48.50
54556;BME280;57291;37.520;15.106;2023-09-19T12:29:49;101137.72;;;31.84;44.46
54556;BME280;57291;37.520;15.106;2023-09-19T12:32:17;101128.84;;;31.89;46.17
54556;BME280;57291;37.520;15.106;2023-09-19T12:34:52;101124.94;;;32.03;41.20
54556;BME280;57291;37.520;15.106;2023-09-19T12:37:20;101126.91;;;32.22;39.68
54556;BME280;57291;37.520;15.106;2023-09-19T12:39:50;101123.16;;;32.29;39.91
54556;BME280;57291;37.520;15.106;2023-09-19T12:42:23;101120.69;;;32.31;38.20
54556;BME280;57291;37.520;15.106;2023-09-19T12:44:51;101115.44;;;32.33;37.04
54556;BME280;57291;37.520;15.106;2023-09-19T12:47:28;101108.91;;;32.56;35.66
54556;BME280;57291;37.520;15.106;2023-09-19T12:50:06;101111.63;;;32.76;35.56
54556;BME280;57291;37.520;15.106;2023-09-19T12:52:36;101108.34;;;32.61;37.45
54556;BME280;57291;37.520;15.106;2023-09-19T12:55:05;101105.41;;;32.68;38.69
54556;BME280;57291;37.520;15.106;2023-09-19T12:57:37;101107.66;;;32.73;41.01
54556;BME280;57291;37.520;15.106;2023-09-19T13:00:06;101108.13;;;32.72;38.95
54556;BME280;57291;37.520;15.106;2023-09-19T13:08:21;101095.63;;;32.73;35.57
54556;BME280;57291;37.520;15.106;2023-09-19T13:13:42;101101.94;;;32.60;36.20
54556;BME280;57291;37.520;15.106;2023-09-19T13:16:16;101105.81;;;32.83;37.25
54556;BME280;57291;37.520;15.106;2023-09-19T13:18:58;101109.44;;;33.00;35.32
54556;BME280;57291;37.520;15.106;2023-09-19T13:21:34;101096.44;;;33.06;36.20
54556;BME280;57291;37.520;15.106;2023-09-19T13:24:24;101091.16;;;32.91;35.93
54556;BME280;57291;37.520;15.106;2023-09-19T13:26:54;101102.56;;;32.52;47.52
54556;BME280;57291;37.520;15.106;2023-09-19T13:29:22;101113.06;;;31.51;62.64
54556;BME280;57291;37.520;15.106;2023-09-19T13:31:52;101111.81;;;30.58;63.11
54556;BME280;57291;37.520;15.106;2023-09-19T13:34:22;101102.00;;;30.12;58.47
54556;BME280;57291;37.520;15.106;2023-09-19T13:36:50;101103.09;;;29.91;64.63
54556;BME280;57291;37.520;15.106;2023-09-19T13:39:17;101104.03;;;29.78;63.00
54556;BME280;57291;37.520;15.106;2023-09-19T13:41:46;101102.94;;;29.72;62.26
54556;BME280;57291;37.520;15.106;2023-09-19T13:44:14;101110.59;;;29.64;68.04
54556;BME280;57291;37.520;15.106;2023-09-19T13:46:43;101110.31;;;29.51;69.87
54556;BME280;57291;37.520;15.106;2023-09-19T13:49:15;101103.97;;;29.47;72.32
54556;BME280;57291;37.520;15.106;2023-09-19T13:51:48;101104.13;;;29.33;71.49
54556;BME280;57291;37.520;15.106;2023-09-19T13:54:15;101095.09;;;29.14;69.96